createdAt,value
2017-01-30T00:00:06.774Z,0
2017-01-30T00:01:15.767Z,0
2017-01-30T00:02:25.527Z,0
2017-01-30T00:03:34.488Z,0
2017-01-30T00:04:43.860Z,0
2017-01-30T00:05:52.986Z,0
2017-01-30T00:07:02.380Z,0
2017-01-30T00:08:11.453Z,0
2017-01-30T00:09:20.408Z,0
2017-01-30T00:10:29.774Z,0
2017-01-30T00:11:38.730Z,0
2017-01-30T00:12:47.685Z,0
2017-01-30T00:13:56.651Z,0
2017-01-30T00:15:05.609Z,0
2017-01-30T00:16:15.063Z,0
2017-01-30T00:17:24.024Z,0
2017-01-30T00:18:32.984Z,0
2017-01-30T00:19:41.940Z,0
2017-01-30T00:20:50.897Z,0
2017-01-30T00:21:59.861Z,0
2017-01-30T00:23:09.545Z,0
2017-01-30T00:24:18.980Z,0
2017-01-30T00:25:27.934Z,0
2017-01-30T00:26:37.172Z,0
2017-01-30T00:27:47.101Z,0
2017-01-30T00:28:57.395Z,0
2017-01-30T00:30:07.783Z,0
2017-01-30T00:31:16.825Z,0
2017-01-30T00:32:25.811Z,0
2017-01-30T00:33:35.139Z,0
2017-01-30T00:34:44.457Z,0
2017-01-30T00:35:54.737Z,0
2017-01-30T00:37:03.698Z,0
2017-01-30T00:38:13.357Z,0
2017-01-30T00:39:22.653Z,0
2017-01-30T00:40:31.621Z,0
2017-01-30T00:41:40.587Z,0
2017-01-30T00:42:49.544Z,0
2017-01-30T00:43:58.631Z,0
2017-01-30T00:45:13.570Z,0
2017-01-30T00:46:31.143Z,0
2017-01-30T00:47:45.214Z,0
2017-01-30T00:49:03.032Z,0
2017-01-30T00:50:20.408Z,0
2017-01-30T00:51:44.166Z,0
2017-01-30T00:53:05.320Z,0
2017-01-30T00:54:29.283Z,0
2017-01-30T00:55:51.025Z,0
2017-01-30T00:57:11.323Z,0
2017-01-30T00:58:35.646Z,0
2017-01-30T00:59:57.462Z,0
2017-01-30T01:01:23.491Z,0
2017-01-30T01:02:39.477Z,0
2017-01-30T01:04:03.132Z,0
2017-01-30T01:05:17.041Z,0
2017-01-30T01:06:32.249Z,0
2017-01-30T01:07:43.196Z,0
2017-01-30T01:08:54.035Z,0
2017-01-30T01:10:08.599Z,0
2017-01-30T01:11:20.478Z,0
2017-01-30T01:12:43.780Z,0
2017-01-30T01:14:04.355Z,0
2017-01-30T01:15:21.952Z,0
2017-01-30T01:16:41.393Z,0
2017-01-30T01:18:01.249Z,0
2017-01-30T01:19:26.109Z,0
2017-01-30T01:20:46.527Z,0
2017-01-30T01:22:06.301Z,0
2017-01-30T01:23:22.703Z,0
2017-01-30T01:24:35.371Z,0
2017-01-30T01:25:45.982Z,0
2017-01-30T01:26:55.893Z,0
2017-01-30T01:28:05.929Z,0
2017-01-30T01:29:17.709Z,0
2017-01-30T01:30:36.710Z,0
2017-01-30T01:31:48.722Z,0
2017-01-30T01:33:00.187Z,0
2017-01-30T01:34:13.013Z,0
2017-01-30T01:35:24.158Z,0
2017-01-30T01:36:35.604Z,0
2017-01-30T01:37:47.398Z,0
2017-01-30T01:39:02.705Z,0
2017-01-30T01:40:16.125Z,0
2017-01-30T01:41:25.089Z,0
2017-01-30T01:42:34.044Z,0
2017-01-30T01:43:43.090Z,0
2017-01-30T01:44:52.044Z,0
2017-01-30T01:46:00.998Z,0
2017-01-30T01:47:10.051Z,0
2017-01-30T01:48:19.006Z,0
2017-01-30T01:49:27.972Z,0
2017-01-30T01:50:36.929Z,0
2017-01-30T01:51:45.891Z,0
2017-01-30T01:52:54.855Z,0
2017-01-30T01:54:04.223Z,0
2017-01-30T01:55:13.178Z,0
2017-01-30T01:56:22.543Z,0
2017-01-30T01:57:31.590Z,0
2017-01-30T01:58:40.544Z,0
2017-01-30T01:59:49.501Z,0
2017-01-30T02:00:58.454Z,0
2017-01-30T02:02:07.414Z,0
2017-01-30T02:03:16.384Z,0
2017-01-30T02:04:25.422Z,0
2017-01-30T02:05:34.470Z,0
2017-01-30T02:06:43.432Z,0
2017-01-30T02:07:52.391Z,0
2017-01-30T02:09:01.353Z,0
2017-01-30T02:10:10.302Z,0
2017-01-30T02:11:19.346Z,0
2017-01-30T02:12:28.390Z,0
2017-01-30T02:13:37.338Z,0
2017-01-30T02:14:46.301Z,0
2017-01-30T02:15:55.690Z,0
2017-01-30T02:17:04.649Z,0
2017-01-30T02:18:13.607Z,0
2017-01-30T02:19:22.562Z,0
2017-01-30T02:20:31.520Z,0
2017-01-30T02:21:40.478Z,0
2017-01-30T02:22:49.527Z,0
2017-01-30T02:23:58.481Z,0
2017-01-30T02:25:07.444Z,0
2017-01-30T02:26:16.400Z,0
2017-01-30T02:27:25.360Z,0
2017-01-30T02:28:34.324Z,0
2017-01-30T02:29:43.285Z,0
2017-01-30T02:30:52.240Z,0
2017-01-30T02:32:01.205Z,0
2017-01-30T02:33:10.163Z,0
2017-01-30T02:34:19.208Z,0
2017-01-30T02:35:28.181Z,0
2017-01-30T02:36:37.227Z,0
2017-01-30T02:37:46.183Z,0
2017-01-30T02:38:55.237Z,0
2017-01-30T02:40:04.193Z,0
2017-01-30T02:41:13.242Z,0
2017-01-30T02:42:22.203Z,0
2017-01-30T02:43:31.252Z,0
2017-01-30T02:44:40.207Z,0
2017-01-30T02:45:49.588Z,0
2017-01-30T02:46:58.544Z,0
2017-01-30T02:48:07.500Z,0
2017-01-30T02:49:16.450Z,0
2017-01-30T02:50:25.523Z,0
2017-01-30T02:51:34.488Z,0
2017-01-30T02:52:43.484Z,0
2017-01-30T02:53:52.441Z,0
2017-01-30T02:55:01.402Z,0
2017-01-30T02:56:10.361Z,0
2017-01-30T02:57:19.323Z,0
2017-01-30T02:58:28.372Z,0
2017-01-30T02:59:37.772Z,0
2017-01-30T03:00:47.220Z,0
2017-01-30T03:01:56.278Z,0
2017-01-30T03:03:05.240Z,0
2017-01-30T03:04:14.191Z,0
2017-01-30T03:05:23.160Z,0
2017-01-30T03:06:32.199Z,0
2017-01-30T03:07:41.154Z,0
2017-01-30T03:08:50.113Z,0
2017-01-30T03:09:59.098Z,0
2017-01-30T03:11:08.054Z,0
2017-01-30T03:12:17.013Z,0
2017-01-30T03:13:25.968Z,0
2017-01-30T03:14:34.970Z,0
2017-01-30T03:15:43.930Z,0
2017-01-30T03:16:52.890Z,0
2017-01-30T03:18:01.931Z,0
2017-01-30T03:19:10.897Z,0
2017-01-30T03:20:19.851Z,0
2017-01-30T03:21:28.897Z,0
2017-01-30T03:22:37.851Z,0
2017-01-30T03:23:46.806Z,0
2017-01-30T03:24:55.771Z,0
2017-01-30T03:26:04.728Z,0
2017-01-30T03:27:13.684Z,0
2017-01-30T03:28:22.639Z,0
2017-01-30T03:29:31.600Z,0
2017-01-30T03:30:40.967Z,0
2017-01-30T03:31:53.249Z,0
2017-01-30T03:33:05.608Z,0
2017-01-30T03:34:16.078Z,0
2017-01-30T03:35:29.719Z,0
2017-01-30T03:36:39.755Z,0
2017-01-30T03:37:48.715Z,0
2017-01-30T03:38:58.183Z,0
2017-01-30T03:40:09.304Z,0
2017-01-30T03:41:22.955Z,0
2017-01-30T03:42:34.319Z,0
2017-01-30T03:43:43.453Z,0
2017-01-30T03:44:56.408Z,0
2017-01-30T03:46:09.373Z,0
2017-01-30T03:47:24.271Z,0
2017-01-30T03:48:33.225Z,0
2017-01-30T03:49:49.696Z,0
2017-01-30T03:51:01.600Z,0
2017-01-30T03:52:13.693Z,0
2017-01-30T03:53:26.970Z,0
2017-01-30T03:54:42.753Z,0
2017-01-30T03:55:51.840Z,0
2017-01-30T03:57:01.562Z,0
2017-01-30T03:58:11.653Z,0
2017-01-30T03:59:21.478Z,0
2017-01-30T04:00:32.144Z,0
2017-01-30T04:01:41.970Z,0
2017-01-30T04:02:52.798Z,0
2017-01-30T04:04:03.825Z,0
2017-01-30T04:05:15.803Z,0
2017-01-30T04:06:31.167Z,0
2017-01-30T04:07:45.432Z,0
2017-01-30T04:08:57.810Z,0
2017-01-30T04:10:12.646Z,0
2017-01-30T04:11:27.562Z,0
2017-01-30T04:12:38.327Z,0
2017-01-30T04:13:47.281Z,0
2017-01-30T04:14:56.244Z,0
2017-01-30T04:16:05.201Z,0
2017-01-30T04:17:14.158Z,0
2017-01-30T04:18:23.115Z,0
2017-01-30T04:19:32.075Z,0
2017-01-30T04:20:41.041Z,0
2017-01-30T04:21:49.999Z,0
2017-01-30T04:22:59.063Z,0
2017-01-30T04:24:08.045Z,0
2017-01-30T04:25:17.000Z,0
2017-01-30T04:26:26.365Z,0
2017-01-30T04:27:35.320Z,0
2017-01-30T04:28:44.285Z,0
2017-01-30T04:29:53.251Z,0
2017-01-30T04:31:02.204Z,0
2017-01-30T04:32:11.164Z,0
2017-01-30T04:33:20.212Z,0
2017-01-30T04:34:29.165Z,0
2017-01-30T04:35:38.118Z,0
2017-01-30T04:36:47.073Z,0
2017-01-30T04:37:56.026Z,0
2017-01-30T04:39:04.980Z,0
2017-01-30T04:40:13.933Z,0
2017-01-30T04:41:22.891Z,0
2017-01-30T04:42:31.849Z,0
2017-01-30T04:43:40.811Z,0
2017-01-30T04:44:49.772Z,0
2017-01-30T04:45:58.725Z,0
2017-01-30T04:47:07.681Z,0
2017-01-30T04:48:16.636Z,0
2017-01-30T04:49:26.052Z,0
2017-01-30T04:50:35.010Z,0
2017-01-30T04:51:43.965Z,0
2017-01-30T04:52:52.919Z,0
2017-01-30T04:54:02.289Z,0
2017-01-30T04:55:11.245Z,0
2017-01-30T04:56:20.202Z,0
2017-01-30T04:57:29.161Z,0
2017-01-30T04:58:38.116Z,0
2017-01-30T04:59:47.177Z,0
2017-01-30T05:00:56.135Z,0
2017-01-30T05:02:05.193Z,0
2017-01-30T05:03:14.559Z,0
2017-01-30T05:04:23.515Z,0
2017-01-30T05:05:32.563Z,0
2017-01-30T05:06:41.608Z,0
2017-01-30T05:07:50.652Z,0
2017-01-30T05:08:59.693Z,0
2017-01-30T05:10:08.651Z,0
2017-01-30T05:11:17.608Z,0
2017-01-30T05:12:26.594Z,0
2017-01-30T05:13:35.551Z,0
2017-01-30T05:14:44.508Z,0
2017-01-30T05:15:53.466Z,0
2017-01-30T05:17:02.445Z,0
2017-01-30T05:18:11.486Z,0
2017-01-30T05:19:20.441Z,0
2017-01-30T05:20:29.402Z,0
2017-01-30T05:21:38.360Z,0
2017-01-30T05:22:47.405Z,0
2017-01-30T05:23:56.362Z,0
2017-01-30T05:25:05.321Z,0
2017-01-30T05:26:14.271Z,0
2017-01-30T05:27:23.225Z,0
2017-01-30T05:28:32.178Z,0
2017-01-30T05:29:41.133Z,0
2017-01-30T05:30:50.089Z,0
2017-01-30T05:31:59.046Z,0
2017-01-30T05:33:08.092Z,0
2017-01-30T05:34:17.042Z,0
2017-01-30T05:35:26.030Z,0
2017-01-30T05:36:34.982Z,0
2017-01-30T05:37:44.341Z,0
2017-01-30T05:38:53.299Z,0
2017-01-30T05:40:02.259Z,0
2017-01-30T05:41:11.212Z,0
2017-01-30T05:42:20.193Z,0
2017-01-30T05:43:29.148Z,0
2017-01-30T05:44:38.196Z,0
2017-01-30T05:45:47.154Z,0
2017-01-30T05:46:56.108Z,0
2017-01-30T05:48:05.067Z,0
2017-01-30T05:49:14.516Z,0
2017-01-30T05:50:23.472Z,0
2017-01-30T05:51:32.438Z,0
2017-01-30T05:52:41.397Z,0
2017-01-30T05:53:50.355Z,0
2017-01-30T05:54:59.317Z,0
2017-01-30T05:56:08.276Z,0
2017-01-30T05:57:17.235Z,0
2017-01-30T05:58:26.188Z,0
2017-01-30T05:59:35.157Z,0
2017-01-30T06:00:44.115Z,0
2017-01-30T06:01:53.075Z,0
2017-01-30T06:03:02.127Z,0
2017-01-30T06:04:11.083Z,0
2017-01-30T06:05:20.038Z,0
2017-01-30T06:06:29.079Z,0
2017-01-30T06:07:38.033Z,0
2017-01-30T06:08:46.989Z,0
2017-01-30T06:09:56.073Z,0
2017-01-30T06:11:05.209Z,0
2017-01-30T06:12:14.162Z,0
2017-01-30T06:13:23.130Z,0
2017-01-30T06:14:32.830Z,0
2017-01-30T06:15:41.786Z,0
2017-01-30T06:16:50.742Z,0
2017-01-30T06:17:59.781Z,0
2017-01-30T06:19:08.734Z,0
2017-01-30T06:20:17.689Z,0
2017-01-30T06:21:26.734Z,0
2017-01-30T06:22:35.689Z,4
2017-01-30T06:23:44.645Z,4
2017-01-30T06:24:53.684Z,0
2017-01-30T06:26:02.725Z,0
2017-01-30T06:27:12.099Z,4
2017-01-30T06:28:21.154Z,4
2017-01-30T06:29:30.108Z,4
2017-01-30T06:30:39.066Z,4
2017-01-30T06:31:48.109Z,4
2017-01-30T06:32:57.067Z,8
2017-01-30T06:34:06.031Z,8
2017-01-30T06:35:14.990Z,8
2017-01-30T06:36:23.945Z,8
2017-01-30T06:37:32.911Z,8
2017-01-30T06:38:41.863Z,12
2017-01-30T06:39:50.911Z,16
2017-01-30T06:40:59.949Z,20
2017-01-30T06:42:08.903Z,24
2017-01-30T06:43:17.861Z,28
2017-01-30T06:44:26.901Z,32
2017-01-30T06:45:35.948Z,40
2017-01-30T06:46:44.907Z,44
2017-01-30T06:47:53.864Z,48
2017-01-30T06:49:02.817Z,48
2017-01-30T06:50:12.179Z,48
2017-01-30T06:51:21.132Z,52
2017-01-30T06:52:30.084Z,52
2017-01-30T06:53:39.037Z,56
2017-01-30T06:54:48.083Z,64
2017-01-30T06:55:57.044Z,72
2017-01-30T06:57:06.000Z,84
2017-01-30T06:58:14.962Z,92
2017-01-30T06:59:24.007Z,100
2017-01-30T07:00:32.964Z,112
2017-01-30T07:01:41.921Z,128
2017-01-30T07:02:50.874Z,136
2017-01-30T07:03:59.831Z,144
2017-01-30T07:05:08.878Z,144
2017-01-30T07:06:17.833Z,144
2017-01-30T07:07:26.786Z,148
2017-01-30T07:08:35.740Z,156
2017-01-30T07:09:44.693Z,172
2017-01-30T07:10:53.652Z,184
2017-01-30T07:12:02.607Z,188
2017-01-30T07:13:12.064Z,192
2017-01-30T07:14:21.021Z,196
2017-01-30T07:15:30.004Z,196
2017-01-30T07:16:38.964Z,196
2017-01-30T07:17:48.094Z,192
2017-01-30T07:18:57.481Z,184
2017-01-30T07:20:06.440Z,176
2017-01-30T07:21:15.396Z,172
2017-01-30T07:22:24.352Z,176
2017-01-30T07:23:33.304Z,184
2017-01-30T07:24:42.341Z,196
2017-01-30T07:25:51.292Z,212
2017-01-30T07:27:00.247Z,236
2017-01-30T07:28:09.207Z,260
2017-01-30T07:29:18.260Z,292
2017-01-30T07:30:27.215Z,324
2017-01-30T07:31:36.169Z,344
2017-01-30T07:32:45.125Z,372
2017-01-30T07:33:54.081Z,412
2017-01-30T07:35:03.878Z,428
2017-01-30T07:36:12.837Z,436
2017-01-30T07:37:21.792Z,420
2017-01-30T07:38:30.754Z,408
2017-01-30T07:39:39.706Z,408
2017-01-30T07:40:48.661Z,408
2017-01-30T07:41:57.617Z,408
2017-01-30T07:43:06.979Z,424
2017-01-30T07:44:15.936Z,416
2017-01-30T07:45:24.920Z,412
2017-01-30T07:46:33.874Z,416
2017-01-30T07:47:42.832Z,416
2017-01-30T07:48:51.792Z,408
2017-01-30T07:50:00.748Z,392
2017-01-30T07:51:09.701Z,392
2017-01-30T07:52:18.678Z,412
2017-01-30T07:53:27.631Z,436
2017-01-30T07:54:36.590Z,452
2017-01-30T07:55:45.548Z,472
2017-01-30T07:56:54.504Z,508
2017-01-30T07:58:03.463Z,536
2017-01-30T07:59:12.414Z,548
2017-01-30T08:00:21.371Z,520
2017-01-30T08:01:30.417Z,500
2017-01-30T08:02:39.372Z,508
2017-01-30T08:03:48.331Z,556
2017-01-30T08:04:57.371Z,664
2017-01-30T08:06:06.354Z,796
2017-01-30T08:07:15.315Z,908
2017-01-30T08:08:24.289Z,864
2017-01-30T08:09:33.653Z,812
2017-01-30T08:10:42.762Z,764
2017-01-30T08:11:53.465Z,736
2017-01-30T08:13:05.043Z,696
2017-01-30T08:14:14.405Z,668
2017-01-30T08:15:23.360Z,648
2017-01-30T08:16:32.407Z,624
2017-01-30T08:17:41.358Z,656
2017-01-30T08:18:50.312Z,668
2017-01-30T08:19:59.265Z,628
2017-01-30T08:21:08.229Z,600
2017-01-30T08:22:17.184Z,588
2017-01-30T08:23:26.223Z,600
2017-01-30T08:24:35.182Z,632
2017-01-30T08:25:44.135Z,632
2017-01-30T08:26:53.297Z,640
2017-01-30T08:28:02.261Z,676
2017-01-30T08:29:11.218Z,728
2017-01-30T08:30:20.176Z,736
2017-01-30T08:31:29.234Z,736
2017-01-30T08:32:38.976Z,788
2017-01-30T08:33:48.555Z,860
2017-01-30T08:34:58.214Z,924
2017-01-30T08:36:07.669Z,920
2017-01-30T08:37:16.625Z,872
2017-01-30T08:38:26.948Z,868
2017-01-30T08:39:36.309Z,924
2017-01-30T08:40:45.620Z,964
2017-01-30T08:41:54.600Z,1020
2017-01-30T08:43:03.921Z,1056
2017-01-30T08:44:12.883Z,1092
2017-01-30T08:45:23.505Z,1168
2017-01-30T08:46:32.882Z,1232
2017-01-30T08:47:42.026Z,1208
2017-01-30T08:48:51.206Z,1172
2017-01-30T08:50:00.168Z,1208
2017-01-30T08:51:09.836Z,1220
2017-01-30T08:52:18.801Z,1072
2017-01-30T08:53:29.419Z,1032
2017-01-30T08:54:38.618Z,1188
2017-01-30T08:55:47.825Z,1264
2017-01-30T08:56:56.780Z,1292
2017-01-30T08:58:05.745Z,1288
2017-01-30T08:59:14.702Z,1292
2017-01-30T09:00:23.663Z,1428
2017-01-30T09:01:33.703Z,1580
2017-01-30T09:02:43.541Z,1704
2017-01-30T09:03:52.496Z,1784
2017-01-30T09:05:01.943Z,1772
2017-01-30T09:06:11.472Z,1584
2017-01-30T09:07:21.356Z,1384
2017-01-30T09:08:30.310Z,1184
2017-01-30T09:09:39.276Z,1060
2017-01-30T09:10:48.233Z,1008
2017-01-30T09:11:57.191Z,972
2017-01-30T09:13:06.153Z,980
2017-01-30T09:14:15.201Z,1036
2017-01-30T09:15:24.871Z,1104
2017-01-30T09:16:34.722Z,1200
2017-01-30T09:17:44.517Z,1280
2017-01-30T09:18:53.618Z,1508
2017-01-30T09:20:03.477Z,1556
2017-01-30T09:21:12.437Z,1404
2017-01-30T09:22:22.348Z,1364
2017-01-30T09:23:32.027Z,1344
2017-01-30T09:24:40.988Z,1300
2017-01-30T09:25:51.472Z,1236
2017-01-30T09:27:00.973Z,1248
2017-01-30T09:28:09.952Z,1316
2017-01-30T09:29:19.637Z,1372
2017-01-30T09:30:28.600Z,1440
2017-01-30T09:31:37.561Z,1528
2017-01-30T09:32:46.517Z,1604
2017-01-30T09:33:55.479Z,1648
2017-01-30T09:35:04.437Z,1740
2017-01-30T09:36:13.394Z,1852
2017-01-30T09:37:22.348Z,1916
2017-01-30T09:38:31.310Z,1888
2017-01-30T09:39:40.276Z,1868
2017-01-30T09:40:49.233Z,1868
2017-01-30T09:41:58.188Z,1840
2017-01-30T09:43:07.971Z,1788
2017-01-30T09:44:16.935Z,1732
2017-01-30T09:45:26.657Z,1728
2017-01-30T09:46:36.166Z,1736
2017-01-30T09:47:45.124Z,1780
2017-01-30T09:48:55.078Z,1788
2017-01-30T09:50:04.045Z,1784
2017-01-30T09:51:13.090Z,1792
2017-01-30T09:52:22.045Z,1824
2017-01-30T09:53:31.089Z,1820
2017-01-30T09:54:40.043Z,1724
2017-01-30T09:55:49.013Z,1520
2017-01-30T09:56:57.968Z,1436
2017-01-30T09:58:06.924Z,1600
2017-01-30T09:59:15.880Z,1656
2017-01-30T10:00:24.837Z,1708
2017-01-30T10:01:34.205Z,1644
2017-01-30T10:02:43.264Z,1708
2017-01-30T10:03:52.221Z,1696
2017-01-30T10:05:01.177Z,1648
2017-01-30T10:06:10.143Z,1700
2017-01-30T10:07:19.103Z,1648
2017-01-30T10:08:28.063Z,1524
2017-01-30T10:09:37.019Z,1416
2017-01-30T10:10:45.977Z,1408
2017-01-30T10:11:55.340Z,1432
2017-01-30T10:13:04.304Z,1468
2017-01-30T10:14:13.264Z,1472
2017-01-30T10:15:22.716Z,1552
2017-01-30T10:16:33.083Z,1632
2017-01-30T10:17:42.311Z,1724
2017-01-30T10:18:51.625Z,1740
2017-01-30T10:20:01.606Z,1856
2017-01-30T10:21:10.565Z,1920
2017-01-30T10:22:19.520Z,1896
2017-01-30T10:23:28.476Z,1828
2017-01-30T10:24:37.430Z,1700
2017-01-30T10:25:47.102Z,1532
2017-01-30T10:26:57.131Z,1440
2017-01-30T10:28:06.506Z,1388
2017-01-30T10:29:15.845Z,1340
2017-01-30T10:30:25.129Z,1288
2017-01-30T10:31:34.257Z,1236
2017-01-30T10:32:43.423Z,1180
2017-01-30T10:33:52.626Z,1164
2017-01-30T10:35:01.585Z,1132
2017-01-30T10:36:10.546Z,996
2017-01-30T10:37:19.504Z,964
2017-01-30T10:38:28.479Z,852
2017-01-30T10:39:37.440Z,1080
2017-01-30T10:40:46.493Z,1244
2017-01-30T10:41:55.449Z,1468
2017-01-30T10:43:04.426Z,1500
2017-01-30T10:44:13.384Z,1252
2017-01-30T10:45:22.339Z,1160
2017-01-30T10:46:31.296Z,1228
2017-01-30T10:47:40.249Z,1276
2017-01-30T10:48:49.207Z,1308
2017-01-30T10:49:58.563Z,1464
2017-01-30T10:51:07.931Z,1576
2017-01-30T10:52:16.971Z,1556
2017-01-30T10:53:25.933Z,1452
2017-01-30T10:54:34.891Z,1424
2017-01-30T10:55:43.855Z,1668
2017-01-30T10:56:52.822Z,1668
2017-01-30T10:58:01.780Z,1568
2017-01-30T10:59:10.742Z,1504
2017-01-30T11:00:19.699Z,1572
2017-01-30T11:01:28.653Z,1580
2017-01-30T11:02:38.012Z,1464
2017-01-30T11:03:46.975Z,1404
2017-01-30T11:04:55.936Z,1256
2017-01-30T11:06:04.991Z,1200
2017-01-30T11:07:14.441Z,1220
2017-01-30T11:08:23.804Z,1264
2017-01-30T11:09:32.843Z,1224
2017-01-30T11:10:41.817Z,1256
2017-01-30T11:11:50.790Z,1360
2017-01-30T11:12:59.831Z,1308
2017-01-30T11:14:08.787Z,1272
2017-01-30T11:15:18.165Z,1432
2017-01-30T11:16:27.121Z,1816
2017-01-30T11:17:36.087Z,2024
2017-01-30T11:18:45.457Z,1916
2017-01-30T11:19:54.501Z,1772
2017-01-30T11:21:03.463Z,1596
2017-01-30T11:22:12.508Z,1608
2017-01-30T11:23:21.477Z,1812
2017-01-30T11:24:30.639Z,1768
2017-01-30T11:25:39.689Z,1856
2017-01-30T11:26:48.851Z,1352
2017-01-30T11:27:57.895Z,1388
2017-01-30T11:29:06.887Z,1568
2017-01-30T11:30:15.846Z,1608
2017-01-30T11:31:24.807Z,1436
2017-01-30T11:32:34.172Z,1148
2017-01-30T11:33:43.213Z,1120
2017-01-30T11:34:52.172Z,1452
2017-01-30T11:36:01.532Z,1460
2017-01-30T11:37:10.573Z,1888
2017-01-30T11:38:19.530Z,2332
2017-01-30T11:39:28.897Z,2596
2017-01-30T11:40:37.862Z,2780
2017-01-30T11:41:46.817Z,2868
2017-01-30T11:42:55.775Z,2860
2017-01-30T11:44:04.737Z,2464
2017-01-30T11:45:13.695Z,2656
2017-01-30T11:46:22.647Z,2720
2017-01-30T11:47:31.611Z,2784
2017-01-30T11:48:40.573Z,2748
2017-01-30T11:49:49.547Z,2668
2017-01-30T11:50:58.527Z,2580
2017-01-30T11:52:07.487Z,2520
2017-01-30T11:53:16.453Z,2416
2017-01-30T11:54:25.411Z,2296
2017-01-30T11:55:34.367Z,2200
2017-01-30T11:56:43.349Z,2152
2017-01-30T11:57:52.306Z,2208
2017-01-30T11:59:01.261Z,2372
2017-01-30T12:00:10.220Z,2532
2017-01-30T12:01:19.175Z,2620
2017-01-30T12:02:28.139Z,2608
2017-01-30T12:03:37.097Z,2812
2017-01-30T12:04:46.055Z,3060
2017-01-30T12:05:55.099Z,3228
2017-01-30T12:07:04.059Z,3264
2017-01-30T12:08:13.016Z,3156
2017-01-30T12:09:21.968Z,3088
2017-01-30T12:10:31.028Z,2944
2017-01-30T12:11:39.982Z,2680
2017-01-30T12:12:48.936Z,2716
2017-01-30T12:13:57.919Z,2696
2017-01-30T12:15:06.884Z,2772
2017-01-30T12:16:15.839Z,2788
2017-01-30T12:17:24.802Z,2868
2017-01-30T12:18:34.175Z,2948
2017-01-30T12:19:43.135Z,2996
2017-01-30T12:20:52.093Z,3000
2017-01-30T12:22:01.056Z,2916
2017-01-30T12:23:10.431Z,2836
2017-01-30T12:24:19.387Z,2600
2017-01-30T12:25:28.433Z,2232
2017-01-30T12:26:37.389Z,2008
2017-01-30T12:27:46.349Z,1888
2017-01-30T12:28:55.307Z,1764
2017-01-30T12:30:04.264Z,1680
2017-01-30T12:31:13.639Z,1608
2017-01-30T12:32:22.681Z,1596
2017-01-30T12:33:31.634Z,1628
2017-01-30T12:34:40.588Z,1656
2017-01-30T12:35:49.961Z,1704
2017-01-30T12:36:58.917Z,1616
2017-01-30T12:38:07.884Z,1472
2017-01-30T12:39:16.870Z,1352
2017-01-30T12:40:25.824Z,1220
2017-01-30T12:41:34.785Z,1240
2017-01-30T12:42:43.744Z,1236
2017-01-30T12:43:52.704Z,1108
2017-01-30T12:45:01.658Z,984
2017-01-30T12:46:10.617Z,892
2017-01-30T12:47:19.579Z,828
2017-01-30T12:48:28.536Z,844
2017-01-30T12:49:37.580Z,764
2017-01-30T12:50:46.543Z,700
2017-01-30T12:51:55.584Z,688
2017-01-30T12:53:04.630Z,660
2017-01-30T12:54:13.594Z,628
2017-01-30T12:55:22.554Z,600
2017-01-30T12:56:31.512Z,604
2017-01-30T12:57:40.983Z,576
2017-01-30T12:58:50.346Z,608
2017-01-30T12:59:59.299Z,692
2017-01-30T13:01:08.260Z,760
2017-01-30T13:02:17.217Z,824
2017-01-30T13:03:26.175Z,828
2017-01-30T13:04:35.220Z,832
2017-01-30T13:05:44.181Z,872
2017-01-30T13:06:53.540Z,904
2017-01-30T13:08:02.501Z,956
2017-01-30T13:09:11.548Z,984
2017-01-30T13:10:20.504Z,1024
2017-01-30T13:11:29.550Z,1020
2017-01-30T13:12:38.595Z,1012
2017-01-30T13:13:47.548Z,976
2017-01-30T13:14:56.507Z,960
2017-01-30T13:16:05.491Z,936
2017-01-30T13:17:14.559Z,884
2017-01-30T13:18:23.512Z,924
2017-01-30T13:19:32.465Z,1016
2017-01-30T13:20:41.419Z,1072
2017-01-30T13:21:50.373Z,1028
2017-01-30T13:22:59.736Z,948
2017-01-30T13:24:08.693Z,984
2017-01-30T13:25:17.653Z,996
2017-01-30T13:26:26.608Z,968
2017-01-30T13:27:35.567Z,972
2017-01-30T13:28:44.518Z,940
2017-01-30T13:29:53.469Z,904
2017-01-30T13:31:02.510Z,868
2017-01-30T13:32:11.886Z,872
2017-01-30T13:33:20.842Z,884
2017-01-30T13:34:29.823Z,900
2017-01-30T13:35:39.147Z,880
2017-01-30T13:36:48.519Z,816
2017-01-30T13:37:57.476Z,824
2017-01-30T13:39:06.442Z,832
2017-01-30T13:40:15.397Z,840
2017-01-30T13:41:24.354Z,864
2017-01-30T13:42:33.719Z,832
2017-01-30T13:43:42.674Z,776
2017-01-30T13:44:51.631Z,732
2017-01-30T13:46:00.595Z,740
2017-01-30T13:47:09.954Z,764
2017-01-30T13:48:18.908Z,776
2017-01-30T13:49:27.868Z,768
2017-01-30T13:50:36.820Z,788
2017-01-30T13:51:45.873Z,824
2017-01-30T13:52:54.827Z,832
2017-01-30T13:54:03.779Z,884
2017-01-30T13:55:12.816Z,944
2017-01-30T13:56:21.770Z,1040
2017-01-30T13:57:30.812Z,1164
2017-01-30T13:58:39.779Z,1232
2017-01-30T13:59:48.737Z,1292
2017-01-30T14:00:57.746Z,1248
2017-01-30T14:02:06.703Z,1244
2017-01-30T14:03:15.656Z,1276
2017-01-30T14:04:24.699Z,1204
2017-01-30T14:05:33.744Z,1116
2017-01-30T14:06:43.116Z,1060
2017-01-30T14:07:52.071Z,1052
2017-01-30T14:09:01.027Z,1064
2017-01-30T14:10:10.068Z,1044
2017-01-30T14:11:19.026Z,952
2017-01-30T14:12:27.983Z,828
2017-01-30T14:13:36.941Z,716
2017-01-30T14:14:45.895Z,696
2017-01-30T14:15:54.856Z,684
2017-01-30T14:17:03.816Z,676
2017-01-30T14:18:12.776Z,696
2017-01-30T14:19:21.733Z,716
2017-01-30T14:20:30.685Z,664
2017-01-30T14:21:39.643Z,628
2017-01-30T14:22:48.598Z,568
2017-01-30T14:23:57.561Z,548
2017-01-30T14:25:06.510Z,540
2017-01-30T14:26:15.467Z,512
2017-01-30T14:27:24.434Z,544
2017-01-30T14:28:34.131Z,520
2017-01-30T14:29:44.149Z,480
2017-01-30T14:30:53.454Z,460
2017-01-30T14:32:02.831Z,444
2017-01-30T14:33:11.787Z,416
2017-01-30T14:34:20.838Z,388
2017-01-30T14:35:30.529Z,356
2017-01-30T14:36:39.489Z,304
2017-01-30T14:37:50.497Z,268
2017-01-30T14:39:01.387Z,280
2017-01-30T14:40:11.668Z,288
2017-01-30T14:41:21.280Z,296
2017-01-30T14:42:30.323Z,296
2017-01-30T14:43:39.284Z,276
2017-01-30T14:44:48.250Z,268
2017-01-30T14:45:57.202Z,256
2017-01-30T14:47:06.156Z,240
2017-01-30T14:48:15.111Z,220
2017-01-30T14:49:24.154Z,204
2017-01-30T14:50:33.100Z,196
2017-01-30T14:51:42.058Z,196
2017-01-30T14:52:51.013Z,192
2017-01-30T14:53:59.969Z,204
2017-01-30T14:55:09.009Z,208
2017-01-30T14:56:17.967Z,204
2017-01-30T14:57:27.230Z,200
2017-01-30T14:58:36.183Z,212
2017-01-30T14:59:45.130Z,224
2017-01-30T15:00:54.794Z,208
2017-01-30T15:02:04.131Z,232
2017-01-30T15:03:14.409Z,244
2017-01-30T15:04:24.011Z,248
2017-01-30T15:05:33.709Z,292
2017-01-30T15:06:42.755Z,280
2017-01-30T15:07:52.561Z,276
2017-01-30T15:09:01.704Z,256
2017-01-30T15:10:10.665Z,228
2017-01-30T15:11:19.756Z,208
2017-01-30T15:12:29.718Z,168
2017-01-30T15:13:39.847Z,132
2017-01-30T15:14:48.806Z,116
2017-01-30T15:15:57.759Z,108
2017-01-30T15:17:07.553Z,96
2017-01-30T15:18:17.566Z,88
2017-01-30T15:19:26.553Z,92
2017-01-30T15:20:35.514Z,92
2017-01-30T15:21:44.820Z,104
2017-01-30T15:22:54.103Z,96
2017-01-30T15:24:03.797Z,88
2017-01-30T15:25:13.141Z,80
2017-01-30T15:26:22.706Z,72
2017-01-30T15:27:32.464Z,68
2017-01-30T15:28:41.717Z,68
2017-01-30T15:29:50.684Z,60
2017-01-30T15:30:59.637Z,60
2017-01-30T15:32:08.594Z,60
2017-01-30T15:33:17.954Z,56
2017-01-30T15:34:27.101Z,48
2017-01-30T15:35:36.778Z,40
2017-01-30T15:36:46.072Z,36
2017-01-30T15:37:55.027Z,36
2017-01-30T15:39:04.252Z,36
2017-01-30T15:40:13.525Z,40
2017-01-30T15:41:22.852Z,36
2017-01-30T15:42:31.815Z,32
2017-01-30T15:43:41.005Z,28
2017-01-30T15:44:49.960Z,24
2017-01-30T15:45:59.581Z,24
2017-01-30T15:47:10.709Z,20
2017-01-30T15:48:21.623Z,20
2017-01-30T15:49:31.596Z,16
2017-01-30T15:50:40.890Z,16
2017-01-30T15:51:49.847Z,16
2017-01-30T15:52:58.804Z,16
2017-01-30T15:54:07.796Z,12
2017-01-30T15:55:16.760Z,12
2017-01-30T15:56:25.730Z,8
2017-01-30T15:57:34.688Z,8
2017-01-30T15:58:43.645Z,8
2017-01-30T15:59:52.601Z,4
2017-01-30T16:01:01.563Z,4
2017-01-30T16:02:10.519Z,4
2017-01-30T16:03:19.475Z,4
2017-01-30T16:04:28.436Z,4
2017-01-30T16:05:37.393Z,4
2017-01-30T16:06:46.355Z,0
2017-01-30T16:07:55.320Z,0
2017-01-30T16:09:04.278Z,4
2017-01-30T16:10:13.235Z,4
2017-01-30T16:11:22.199Z,0
2017-01-30T16:12:31.189Z,0
2017-01-30T16:13:40.566Z,0
2017-01-30T16:14:49.519Z,0
2017-01-30T16:15:58.474Z,0
2017-01-30T16:17:07.429Z,0
2017-01-30T16:18:16.389Z,0
2017-01-30T16:19:25.352Z,0
2017-01-30T16:20:34.302Z,0